Terminal Aerodrome Forecast
Issued by NWS Cleveland, OH

Home | Current Version | Previous Version | Graphics & Text | Print | Product List | Glossary On
Versions: 1 2 3 4 5 6 7 8 9 10 11 12 13 14 15
691
FTUS41 KCLE 280856 AAA
TAFYNG
TAF AMD
KYNG 280856Z 2809/2906 21003KT P6SM BKN200
      TEMPO 2810/2813 4SM BR
     FM281500 23005KT P6SM SCT030 BKN200
     FM282000 27005KT P6SM VCTS SCT040CB BKN120
     FM290100 32004KT 6SM BR SCT040 BKN150=

USA.gov is the U.S. government's official web portal to all federal, state and local government web resources and services.